Time;durP1;ratioP1;P1;durP2;ratioP2;P2;SDS_P1;SDS_P2;PMS_P1;PMS_P2;Temp;Humidity;BMP_temperature;BMP_pressure;BME280_temperature;BME280_humidity;BME280_pressure;Samples;Min_cycle;Max_cycle;Signal;HPM_P1;HPM_P2
2021/01/07 00:00:13;;;;;;;7.18;6.45;;;1.40;94.30;;;;;;5038533;28;20060;-72
2021/01/07 00:02:39;;;;;;;9.18;6.90;;;1.40;94.30;;;;;;5039558;28;20036;-72
2021/01/07 00:05:06;;;;;;;7.47;6.40;;;1.40;94.30;;;;;;5039710;28;20030;-72
2021/01/07 00:07:33;;;;;;;7.82;6.20;;;1.40;94.20;;;;;;5039620;28;20317;-72
2021/01/07 00:09:59;;;;;;;9.85;7.05;;;1.40;94.30;;;;;;5039665;28;20026;-72
2021/01/07 00:12:25;;;;;;;9.80;7.70;;;1.50;94.30;;;;;;5038272;28;20421;-72
2021/01/07 00:14:51;;;;;;;8.00;6.13;;;1.60;94.20;;;;;;5039252;28;20030;-72
2021/01/07 00:17:16;;;;;;;8.35;6.55;;;1.60;93.80;;;;;;5039326;28;20024;-72
2021/01/07 00:19:42;;;;;;;11.18;7.70;;;1.60;93.80;;;;;;5039208;28;20029;-72
2021/01/07 00:22:07;;;;;;;12.23;8.10;;;1.60;94.00;;;;;;5039232;28;20057;-72
2021/01/07 00:24:33;;;;;;;9.52;7.63;;;1.70;93.90;;;;;;5039029;28;20034;-72
2021/01/07 00:26:59;;;;;;;9.45;7.43;;;1.70;93.80;;;;;;5038461;28;20056;-72
2021/01/07 00:29:24;;;;;;;9.27;7.18;;;1.70;93.40;;;;;;5038511;28;20030;-72
2021/01/07 00:31:50;;;;;;;8.88;6.95;;;1.70;93.50;;;;;;5037987;28;20030;-72
2021/01/07 00:34:16;;;;;;;10.00;7.25;;;1.70;93.60;;;;;;5038922;28;20025;-72
2021/01/07 00:36:41;;;;;;;9.18;7.93;;;1.60;93.40;;;;;;5038913;28;20017;-72
2021/01/07 00:39:07;;;;;;;9.00;7.22;;;1.50;93.10;;;;;;5038831;28;20033;-72
2021/01/07 00:41:33;;;;;;;10.25;7.78;;;1.50;93.20;;;;;;5039097;28;20053;-72
2021/01/07 00:43:58;;;;;;;9.45;7.65;;;1.50;93.30;;;;;;5038711;28;20337;-72
2021/01/07 00:46:24;;;;;;;8.55;6.55;;;1.50;93.40;;;;;;5039051;28;20049;-72
2021/01/07 00:48:50;;;;;;;7.65;6.50;;;1.40;93.10;;;;;;5038535;28;20033;-72
2021/01/07 00:51:16;;;;;;;10.55;8.23;;;1.40;93.10;;;;;;5037849;28;20021;-72
2021/01/07 00:53:41;;;;;;;10.20;8.50;;;1.30;93.30;;;;;;5038886;28;20104;-72
2021/01/07 00:56:07;;;;;;;13.20;10.25;;;1.20;93.50;;;;;;5038575;28;20100;-72
2021/01/07 00:58:33;;;;;;;12.40;9.02;;;1.10;93.90;;;;;;5038758;28;20034;-72
2021/01/07 01:00:58;;;;;;;12.85;10.10;;;1.00;94.00;;;;;;5038460;28;20091;-72
2021/01/07 01:03:24;;;;;;;12.68;10.02;;;0.90;93.90;;;;;;5038625;28;20167;-72
2021/01/07 01:05:50;;;;;;;11.68;9.73;;;0.80;94.40;;;;;;5038595;28;20104;-72
2021/01/07 01:08:16;;;;;;;12.82;10.40;;;0.70;95.10;;;;;;5038481;28;20316;-72
2021/01/07 01:10:46;;;;;;;12.15;8.95;;;0.60;94.50;;;;;;5038244;28;20410;-72
2021/01/07 01:13:12;;;;;;;10.77;8.27;;;0.50;95.00;;;;;;5038204;28;20033;-72
2021/01/07 01:15:38;;;;;;;8.25;6.75;;;0.50;95.40;;;;;;5037083;28;20325;-72
2021/01/07 01:18:04;;;;;;;9.05;6.90;;;0.50;95.80;;;;;;5038152;28;20037;-72
2021/01/07 01:20:31;;;;;;;9.30;6.82;;;0.50;95.70;;;;;;5037067;28;20108;-72
2021/01/07 01:22:56;;;;;;;8.43;6.70;;;0.50;95.20;;;;;;5038092;28;20325;-72
2021/01/07 01:25:22;;;;;;;10.63;5.40;;;0.50;94.90;;;;;;5037752;28;20112;-72
2021/01/07 01:27:48;;;;;;;7.30;5.55;;;0.40;95.00;;;;;;5037916;28;20341;-72
2021/01/07 01:30:14;;;;;;;5.88;4.68;;;0.30;95.20;;;;;;5038165;28;20108;-72
2021/01/07 01:32:42;;;;;;;6.43;4.50;;;0.30;95.30;;;;;;5036799;28;20021;-72
2021/01/07 01:35:09;;;;;;;5.38;4.47;;;0.30;95.20;;;;;;5037849;28;20018;-72
2021/01/07 01:37:38;;;;;;;3.78;3.33;;;0.20;95.40;;;;;;5038273;28;20349;-72
2021/01/07 01:40:06;;;;;;;4.20;3.13;;;0.20;95.10;;;;;;5037623;28;20064;-72
2021/01/07 01:42:32;;;;;;;3.45;2.95;;;0.20;94.80;;;;;;5036616;28;20029;-72
2021/01/07 01:44:57;;;;;;;4.97;3.53;;;0.20;94.40;;;;;;5037617;28;20032;-72
2021/01/07 01:47:23;;;;;;;4.53;3.50;;;0.20;93.80;;;;;;5037455;28;20029;-72
2021/01/07 01:49:50;;;;;;;4.80;3.65;;;0.20;93.70;;;;;;5037471;28;20025;-72
2021/01/07 01:52:18;;;;;;;4.28;3.30;;;0.30;93.40;;;;;;5037511;28;20056;-72
2021/01/07 01:54:44;;;;;;;3.55;2.35;;;0.30;93.20;;;;;;5037427;28;20071;-72
2021/01/07 01:57:13;;;;;;;4.28;3.20;;;0.30;92.50;;;;;;5037421;28;20464;-72
2021/01/07 01:59:39;;;;;;;3.58;2.40;;;0.30;93.00;;;;;;5037351;28;20022;-72
2021/01/07 02:02:10;;;;;;;2.85;2.22;;;0.20;93.60;;;;;;5037312;28;20029;-72
2021/01/07 02:04:36;;;;;;;3.15;2.40;;;0.20;93.20;;;;;;5037334;28;20113;-72
2021/01/07 02:07:03;;;;;;;3.08;2.10;;;0.20;93.50;;;;;;5037431;28;20029;-72
2021/01/07 02:09:30;;;;;;;3.35;2.78;;;0.20;93.50;;;;;;5037195;28;20071;-72
2021/01/07 02:11:59;;;;;;;3.80;3.30;;;0.20;93.90;;;;;;5037072;28;20021;-72
2021/01/07 02:14:28;;;;;;;4.82;3.67;;;0.20;93.50;;;;;;5037325;28;20026;-72
2021/01/07 02:16:55;;;;;;;4.25;3.38;;;0.20;92.80;;;;;;5037543;28;20068;-72
2021/01/07 02:19:21;;;;;;;4.97;4.13;;;0.20;92.90;;;;;;5035964;28;20029;-72
2021/01/07 02:21:47;;;;;;;6.35;3.63;;;0.20;93.60;;;;;;5037308;28;20049;-72
2021/01/07 02:24:13;;;;;;;6.57;5.20;;;0.10;94.50;;;;;;5036994;28;20053;-72
2021/01/07 02:26:40;;;;;;;6.35;5.25;;;0.10;94.60;;;;;;5035572;28;20049;-72
2021/01/07 02:29:06;;;;;;;8.73;6.47;;;0.10;94.50;;;;;;5036825;28;20330;-72
2021/01/07 02:31:32;;;;;;;10.48;7.82;;;0.10;94.00;;;;;;5036872;28;20033;-72
2021/01/07 02:33:57;;;;;;;11.02;6.82;;;0.10;94.50;;;;;;5037113;28;20037;-72
2021/01/07 02:36:23;;;;;;;10.98;7.70;;;0.10;94.80;;;;;;5036731;28;20032;-72
2021/01/07 02:38:49;;;;;;;7.97;6.40;;;0.00;94.60;;;;;;5037041;28;20040;-72
2021/01/07 02:41:15;;;;;;;8.07;6.95;;;0.00;94.90;;;;;;5036953;28;20040;-72
2021/01/07 02:43:41;;;;;;;16.77;12.50;;;0.00;94.60;;;;;;5036897;28;20018;-72
2021/01/07 02:46:07;;;;;;;15.82;12.65;;;0.00;96.50;;;;;;5036950;28;20025;-72
2021/01/07 02:48:33;;;;;;;7.88;6.57;;;0.20;98.00;;;;;;5036523;28;20037;-72
2021/01/07 02:50:59;;;;;;;5.30;4.53;;;0.20;97.70;;;;;;5036139;28;20025;-72
2021/01/07 02:53:25;;;;;;;5.75;3.95;;;0.10;95.00;;;;;;5035542;28;20368;-72
2021/01/07 02:55:50;;;;;;;7.28;5.63;;;0.00;94.20;;;;;;5036875;28;20017;-72
2021/01/07 02:58:17;;;;;;;8.18;6.13;;;-0.10;94.50;;;;;;5036864;28;20029;-72
2021/01/07 03:00:42;;;;;;;5.10;4.13;;;-0.20;95.50;;;;;;5036594;28;20413;-72
2021/01/07 03:03:08;;;;;;;5.22;4.32;;;-0.20;95.50;;;;;;5035449;28;20029;-71
2021/01/07 03:05:34;;;;;;;5.93;4.40;;;-0.10;94.90;;;;;;5036759;28;20386;-71
2021/01/07 03:07:59;;;;;;;5.57;4.18;;;0.00;93.90;;;;;;5036669;28;20033;-71
2021/01/07 03:10:25;;;;;;;4.78;3.38;;;0.20;93.00;;;;;;5036450;28;20413;-71
2021/01/07 03:12:51;;;;;;;5.60;3.50;;;0.40;91.80;;;;;;5036770;28;20156;-71
2021/01/07 03:15:16;;;;;;;5.50;3.80;;;0.40;91.00;;;;;;5036359;28;20025;-71
2021/01/07 03:17:42;;;;;;;5.18;4.00;;;0.40;90.10;;;;;;5036357;28;20033;-72
2021/01/07 03:20:15;;;;;;;6.03;4.00;;;0.50;90.50;;;;;;5036636;28;20041;-72
2021/01/07 03:22:42;;;;;;;4.95;3.92;;;0.50;91.20;;;;;;5036634;28;20112;-72
2021/01/07 03:25:08;;;;;;;5.70;3.50;;;0.50;91.10;;;;;;5036136;28;20053;-72
2021/01/07 03:27:38;;;;;;;3.70;2.83;;;0.40;90.40;;;;;;5036558;28;20042;-72
2021/01/07 03:30:08;;;;;;;3.28;2.58;;;0.30;90.60;;;;;;5036308;28;20018;-72
2021/01/07 03:32:34;;;;;;;4.18;2.60;;;0.10;90.90;;;;;;5036435;28;20361;-72
2021/01/07 03:35:00;;;;;;;4.20;3.00;;;0.00;91.50;;;;;;5036245;28;20029;-72
2021/01/07 03:37:26;;;;;;;3.95;3.45;;;-0.10;92.40;;;;;;5036812;28;20036;-71
2021/01/07 03:39:51;;;;;;;3.60;3.00;;;-0.10;92.40;;;;;;5036175;28;20032;-72
2021/01/07 03:42:17;;;;;;;3.83;3.33;;;-0.10;92.70;;;;;;5036263;28;20104;-71
2021/01/07 03:44:43;;;;;;;4.15;3.25;;;-0.20;93.30;;;;;;5036178;28;20401;-72
2021/01/07 03:47:08;;;;;;;3.92;3.30;;;-0.20;93.30;;;;;;5036033;28;20075;-72
2021/01/07 03:49:34;;;;;;;3.47;2.92;;;-0.20;93.00;;;;;;5036063;28;20061;-72
2021/01/07 03:51:59;;;;;;;4.55;3.33;;;-0.30;92.80;;;;;;5036688;28;20063;-72
2021/01/07 03:54:25;;;;;;;5.07;3.75;;;-0.30;92.60;;;;;;5035953;28;20022;-72
2021/01/07 03:56:51;;;;;;;4.82;3.70;;;-0.30;92.20;;;;;;5036313;28;20367;-71
2021/01/07 03:59:16;;;;;;;4.38;3.40;;;-0.30;92.30;;;;;;5036260;28;20441;-72
2021/01/07 04:01:42;;;;;;;4.68;3.63;;;-0.40;92.60;;;;;;5035962;28;20056;-72
2021/01/07 04:04:08;;;;;;;6.78;4.93;;;-0.30;93.10;;;;;;5038686;28;20115;-72
2021/01/07 04:06:33;;;;;;;5.75;4.43;;;-0.30;94.00;;;;;;5039795;28;20029;-72
2021/01/07 04:08:59;;;;;;;5.53;4.13;;;-0.20;93.70;;;;;;5039582;28;20393;-72
2021/01/07 04:11:25;;;;;;;4.28;3.72;;;-0.10;92.40;;;;;;5039402;28;20467;-72
2021/01/07 04:13:50;;;;;;;7.32;4.15;;;-0.10;92.50;;;;;;5039349;28;20406;-72
2021/01/07 04:16:16;;;;;;;5.45;3.97;;;-0.20;91.90;;;;;;5039306;28;20028;-72
2021/01/07 04:18:41;;;;;;;5.55;4.10;;;-0.20;92.30;;;;;;5039303;28;20033;-72
2021/01/07 04:21:07;;;;;;;6.35;4.75;;;-0.20;92.90;;;;;;5039332;28;20025;-72
2021/01/07 04:23:33;;;;;;;6.03;4.93;;;-0.30;92.60;;;;;;5039103;28;20385;-72
2021/01/07 04:25:59;;;;;;;6.43;5.10;;;-0.30;92.70;;;;;;5039091;28;20080;-72
2021/01/07 04:28:25;;;;;;;10.45;5.35;;;-0.30;92.70;;;;;;5038972;28;20410;-72
2021/01/07 04:30:50;;;;;;;7.43;5.68;;;-0.30;93.20;;;;;;5039031;28;20100;-72
2021/01/07 04:33:17;;;;;;;7.80;6.22;;;-0.30;93.50;;;;;;5038978;28;20022;-72
2021/01/07 04:35:43;;;;;;;7.78;6.25;;;-0.40;93.90;;;;;;5038914;28;20414;-72
2021/01/07 04:38:09;;;;;;;9.55;6.63;;;-0.40;94.00;;;;;;5037824;28;20125;-72
2021/01/07 04:40:35;;;;;;;9.77;7.70;;;-0.40;94.30;;;;;;5038824;28;20061;-72
2021/01/07 04:43:01;;;;;;;9.65;7.50;;;-0.40;94.50;;;;;;5038925;28;20029;-72
2021/01/07 04:45:26;;;;;;;9.40;7.30;;;-0.30;95.00;;;;;;5038729;28;20037;-72
2021/01/07 04:47:52;;;;;;;8.77;6.75;;;-0.30;95.20;;;;;;5038700;28;20113;-72
2021/01/07 04:50:18;;;;;;;4.55;4.03;;;-0.20;95.20;;;;;;5038639;28;20432;-72
2021/01/07 04:52:44;;;;;;;5.45;4.55;;;-0.20;94.70;;;;;;5037588;28;20029;-72
2021/01/07 04:55:10;;;;;;;6.80;5.40;;;-0.20;92.70;;;;;;5037556;28;20036;-72
2021/01/07 04:57:36;;;;;;;5.72;3.97;;;-0.10;92.30;;;;;;5038848;28;20030;-72
2021/01/07 05:00:05;;;;;;;5.80;4.05;;;-0.20;92.60;;;;;;5038520;28;20412;-72
2021/01/07 05:02:32;;;;;;;6.35;4.88;;;-0.20;92.80;;;;;;5038447;28;20409;-72
2021/01/07 05:04:58;;;;;;;8.07;5.40;;;-0.30;92.80;;;;;;5038394;28;20298;-72
2021/01/07 05:07:24;;;;;;;7.32;5.75;;;-0.30;93.10;;;;;;5038613;28;20034;-72
2021/01/07 05:10:01;;;;;;;6.57;5.40;;;-0.40;93.50;;;;;;5038281;28;20028;-72
2021/01/07 05:12:27;;;;;;;6.57;4.72;;;-0.40;93.80;;;;;;5038559;28;20025;-72
2021/01/07 05:14:52;;;;;;;4.50;3.33;;;-0.40;93.40;;;;;;5037704;28;20068;-72
2021/01/07 05:17:18;;;;;;;5.15;3.88;;;-0.40;93.40;;;;;;5038165;28;20100;-72
2021/01/07 05:19:44;;;;;;;4.95;3.75;;;-0.40;93.10;;;;;;5038088;28;20480;-72
2021/01/07 05:22:09;;;;;;;4.60;3.70;;;-0.40;93.30;;;;;;5038331;28;20029;-72
2021/01/07 05:24:37;;;;;;;6.13;4.47;;;-0.40;93.30;;;;;;5038015;28;20021;-72
2021/01/07 05:27:11;;;;;;;5.55;4.65;;;-0.40;93.10;;;;;;5036753;28;20373;-72
2021/01/07 05:29:39;;;;;;;6.25;5.10;;;-0.40;92.50;;;;;;5038058;28;20025;-72
2021/01/07 05:32:08;;;;;;;5.75;4.60;;;-0.40;93.10;;;;;;5038135;28;20036;-72
2021/01/07 05:34:50;;;;;;;5.43;4.53;;;-0.40;93.60;;;;;;5038044;28;20026;-72
2021/01/07 05:37:20;;;;;;;7.47;5.82;;;-0.30;93.00;;;;;;5038098;28;20025;-72
2021/01/07 05:39:47;;;;;;;8.50;6.47;;;-0.30;93.50;;;;;;5037775;28;20026;-72
2021/01/07 05:42:13;;;;;;;6.25;3.65;;;-0.20;94.50;;;;;;5037712;28;20295;-72
2021/01/07 05:44:47;;;;;;;5.25;3.50;;;-0.10;92.40;;;;;;5037596;28;20028;-72
2021/01/07 05:47:29;;;;;;;5.07;3.55;;;-0.20;91.50;;;;;;5037748;28;20108;-72
2021/01/07 05:49:59;;;;;;;3.78;2.67;;;-0.30;90.90;;;;;;5036548;28;20295;-72
2021/01/07 05:52:31;;;;;;;4.30;3.17;;;-0.30;91.30;;;;;;5037525;28;20026;-72
2021/01/07 05:54:59;;;;;;;4.95;3.50;;;-0.40;91.60;;;;;;5037489;28;20051;-72
2021/01/07 05:57:25;;;;;;;5.65;4.38;;;-0.50;92.00;;;;;;5037402;28;20042;-72
2021/01/07 05:59:53;;;;;;;6.00;4.47;;;-0.40;93.00;;;;;;5037373;28;20305;-72
2021/01/07 06:02:18;;;;;;;5.60;4.60;;;-0.40;93.20;;;;;;5037350;28;20030;-72
2021/01/07 06:04:48;;;;;;;7.20;5.57;;;-0.40;93.50;;;;;;5037238;28;20295;-72
2021/01/07 06:07:16;;;;;;;6.50;5.05;;;-0.40;93.60;;;;;;5037155;28;20029;-72
2021/01/07 06:09:45;;;;;;;4.93;4.07;;;-0.40;94.10;;;;;;5036181;28;20096;-72
2021/01/07 06:12:15;;;;;;;5.00;3.72;;;-0.40;93.60;;;;;;5037396;28;20115;-72
2021/01/07 06:14:43;;;;;;;4.50;3.25;;;-0.30;92.80;;;;;;5037290;28;20025;-72
2021/01/07 06:17:09;;;;;;;5.47;4.32;;;-0.30;91.80;;;;;;5036060;28;20029;-72
2021/01/07 06:19:40;;;;;;;4.20;3.28;;;-0.20;91.50;;;;;;5037053;28;20044;-72
2021/01/07 06:22:13;;;;;;;3.47;2.70;;;-0.10;91.50;;;;;;5037315;28;20035;-72
2021/01/07 06:24:40;;;;;;;3.65;2.75;;;-0.10;90.00;;;;;;5036866;28;20029;-72
2021/01/07 06:27:25;;;;;;;3.83;3.00;;;-0.10;89.40;;;;;;5035033;28;20444;-72
2021/01/07 06:30:16;;;;;;;2.42;2.00;;;-0.20;90.00;;;;;;5037182;28;20017;-72
2021/01/07 06:33:05;;;;;;;1.98;1.50;;;-0.30;89.30;;;;;;5036323;28;20117;-72
2021/01/07 06:35:37;;;;;;;2.42;1.98;;;-0.30;89.30;;;;;;5036995;28;20020;-72
2021/01/07 06:38:03;;;;;;;1.92;1.33;;;-0.30;88.90;;;;;;5037047;28;20083;-72
2021/01/07 06:40:29;;;;;;;2.13;1.63;;;-0.30;87.90;;;;;;5036926;28;20083;-72
2021/01/07 06:42:56;;;;;;;1.40;1.10;;;-0.20;87.40;;;;;;5036782;28;20349;-72
2021/01/07 06:45:26;;;;;;;2.08;1.13;;;-0.20;86.30;;;;;;5036920;28;20025;-72
2021/01/07 06:47:56;;;;;;;1.73;1.10;;;-0.10;86.30;;;;;;5036949;28;20343;-72
2021/01/07 06:50:22;;;;;;;1.75;1.20;;;0.00;86.00;;;;;;5036688;28;20045;-72
2021/01/07 06:52:49;;;;;;;2.10;1.25;;;0.10;85.20;;;;;;5035637;28;20025;-72
2021/01/07 06:55:20;;;;;;;1.70;1.40;;;0.10;85.00;;;;;;5035580;28;20025;-72
2021/01/07 06:57:56;;;;;;;1.92;1.00;;;0.10;85.80;;;;;;5036658;28;20112;-72
2021/01/07 07:00:24;;;;;;;1.60;1.10;;;0.10;85.40;;;;;;5036537;28;20109;-72
2021/01/07 07:03:02;;;;;;;1.52;1.00;;;0.10;85.90;;;;;;5035489;28;20030;-72
2021/01/07 07:05:34;;;;;;;1.83;1.15;;;0.10;84.00;;;;;;5036772;28;20379;-72
2021/01/07 07:08:14;;;;;;;5.65;3.92;;;0.10;84.30;;;;;;5036433;28;20026;-72
2021/01/07 07:10:39;;;;;;;5.65;4.32;;;0.20;86.60;;;;;;5036801;28;20018;-72
2021/01/07 07:13:14;;;;;;;3.60;3.05;;;0.20;88.40;;;;;;5036711;28;20101;-72
2021/01/07 07:15:41;;;;;;;3.60;2.50;;;0.20;88.20;;;;;;5036423;28;20020;-72
2021/01/07 07:18:07;;;;;;;2.83;1.90;;;0.20;87.80;;;;;;5036348;28;20112;-72
2021/01/07 07:20:44;;;;;;;5.15;3.72;;;0.10;88.50;;;;;;5035289;28;20060;-72
2021/01/07 07:23:19;;;;;;;9.70;7.53;;;0.10;89.60;;;;;;5036397;28;20025;-72
2021/01/07 07:25:52;;;;;;;11.27;7.90;;;0.00;90.70;;;;;;5036273;28;20049;-72
2021/01/07 07:28:20;;;;;;;14.80;9.75;;;0.00;91.50;;;;;;5036538;28;20041;-72
2021/01/07 07:30:47;;;;;;;13.55;8.57;;;0.00;92.00;;;;;;5036293;28;20326;-72
2021/01/07 07:33:53;;;;;;;9.85;7.30;;;0.10;92.50;;;;;;5035200;28;20033;-72
2021/01/07 07:36:30;;;;;;;11.98;7.35;;;0.10;92.70;;;;;;5036049;28;20030;-72
2021/01/07 07:38:56;;;;;;;10.73;7.47;;;0.10;93.00;;;;;;5040053;28;20103;-72
2021/01/07 07:41:26;;;;;;;8.07;6.57;;;0.20;92.90;;;;;;5038935;28;20418;-72
2021/01/07 07:43:56;;;;;;;9.10;6.07;;;0.40;92.00;;;;;;5039959;28;20029;-72
2021/01/07 07:46:26;;;;;;;6.10;5.40;;;0.50;91.70;;;;;;5039911;28;20108;-72
2021/01/07 07:49:02;;;;;;;9.05;5.82;;;0.50;91.40;;;;;;5038710;28;20329;-72
2021/01/07 07:51:28;;;;;;;7.40;5.45;;;0.70;91.00;;;;;;5039835;28;20036;-72
2021/01/07 07:54:06;;;;;;;8.32;6.50;;;0.80;91.00;;;;;;5039767;28;20022;-72
2021/01/07 07:56:32;;;;;;;6.32;5.28;;;0.80;91.00;;;;;;5040209;28;20425;-72
2021/01/07 07:59:05;;;;;;;6.22;4.55;;;0.80;90.60;;;;;;5039925;28;20026;-72
2021/01/07 08:01:46;;;;;;;5.25;4.05;;;0.90;89.20;;;;;;5039639;28;20414;-72
2021/01/07 08:04:17;;;;;;;5.80;3.72;;;1.00;88.70;;;;;;5039678;28;20318;-72
2021/01/07 08:06:44;;;;;;;5.68;4.13;;;1.00;89.00;;;;;;5039593;28;20044;-72
2021/01/07 08:09:12;;;;;;;6.53;4.93;;;1.10;89.20;;;;;;5039391;28;20025;-72
2021/01/07 08:11:52;;;;;;;7.38;5.78;;;1.20;90.50;;;;;;5039765;28;20025;-72
2021/01/07 08:14:23;;;;;;;6.38;4.40;;;1.30;90.20;;;;;;5039535;28;20422;-72
2021/01/07 08:16:54;;;;;;;8.13;4.85;;;1.40;89.80;;;;;;5039401;28;20108;-72
2021/01/07 08:19:30;;;;;;;6.78;5.20;;;1.40;87.00;;;;;;5039409;28;20104;-72
2021/01/07 08:21:55;;;;;;;6.47;4.93;;;1.40;87.60;;;;;;5039361;28;20034;-71
2021/01/07 08:24:24;;;;;;;6.07;4.72;;;1.40;88.40;;;;;;5038148;28;20025;-71
2021/01/07 08:27:13;;;;;;;7.13;5.30;;;1.40;87.40;;;;;;5039036;28;20046;-72
2021/01/07 08:29:41;;;;;;;7.32;5.32;;;1.40;87.00;;;;;;5039127;28;20307;-71
2021/01/07 08:32:12;;;;;;;7.18;5.20;;;1.50;87.90;;;;;;5039371;28;20025;-72
2021/01/07 08:34:38;;;;;;;7.40;5.60;;;1.60;88.20;;;;;;5039209;28;20022;-72
2021/01/07 08:37:16;;;;;;;6.68;5.20;;;1.70;87.70;;;;;;5038987;28;20053;-72
2021/01/07 08:39:42;;;;;;;7.10;5.55;;;1.80;87.50;;;;;;5039199;28;20132;-71
2021/01/07 08:42:09;;;;;;;5.65;4.20;;;1.90;87.50;;;;;;5037835;28;20075;-72
2021/01/07 08:44:35;;;;;;;5.35;4.13;;;2.10;86.50;;;;;;5038949;28;20052;-72
2021/01/07 08:47:02;;;;;;;8.45;6.00;;;2.20;83.90;;;;;;5038852;28;20033;-71
2021/01/07 08:49:28;;;;;;;7.10;5.57;;;2.30;85.70;;;;;;5037905;28;20112;-71
2021/01/07 08:51:58;;;;;;;8.80;6.00;;;2.40;86.60;;;;;;5038663;28;20025;-71
2021/01/07 08:54:24;;;;;;;9.05;6.78;;;2.50;86.80;;;;;;5038628;28;20017;-71
2021/01/07 08:56:52;;;;;;;9.73;6.93;;;2.50;86.50;;;;;;5038526;28;20037;-72
2021/01/07 08:59:22;;;;;;;8.57;5.45;;;2.60;85.00;;;;;;5038524;28;20025;-72
2021/01/07 09:01:50;;;;;;;6.30;5.00;;;2.60;83.80;;;;;;5038553;28;20051;-72
2021/01/07 09:04:39;;;;;;;5.93;4.72;;;2.60;84.70;;;;;;5038605;28;20041;-72
2021/01/07 09:07:15;;;;;;;7.20;5.53;;;2.70;83.80;;;;;;5038483;28;20029;-71
2021/01/07 09:09:47;;;;;;;8.52;6.85;;;2.90;84.30;;;;;;5038356;28;20112;-71
2021/01/07 09:12:16;;;;;;;8.68;6.57;;;3.10;83.40;;;;;;5038519;28;20529;-71
2021/01/07 09:14:45;;;;;;;7.40;5.72;;;3.10;84.10;;;;;;5038459;28;20060;-72
2021/01/07 09:17:11;;;;;;;8.00;6.13;;;3.30;83.00;;;;;;5038483;28;20021;-72
2021/01/07 09:19:37;;;;;;;6.95;5.55;;;3.40;83.50;;;;;;5038280;28;20024;-71
2021/01/07 09:22:03;;;;;;;7.93;5.47;;;3.40;83.50;;;;;;5038131;28;20076;-72
2021/01/07 09:24:33;;;;;;;7.53;5.13;;;3.50;81.80;;;;;;5038070;28;20104;-72
2021/01/07 09:27:05;;;;;;;7.22;5.35;;;3.40;80.30;;;;;;5037906;28;20054;-72
2021/01/07 09:29:31;;;;;;;5.80;4.75;;;3.40;80.90;;;;;;5037896;28;20437;-72
2021/01/07 09:31:56;;;;;;;8.15;5.00;;;3.50;82.60;;;;;;5038091;28;20022;-72
2021/01/07 09:34:22;;;;;;;6.00;4.38;;;3.60;80.50;;;;;;5038098;28;20025;-72
2021/01/07 09:36:48;;;;;;;5.30;4.50;;;3.70;79.00;;;;;;5036841;28;20040;-72
2021/01/07 09:39:13;;;;;;;6.20;5.05;;;3.70;78.10;;;;;;5037725;28;20025;-72
2021/01/07 09:41:39;;;;;;;5.63;4.80;;;3.80;79.00;;;;;;5037750;28;20026;-72
2021/01/07 09:44:07;;;;;;;4.78;4.15;;;4.00;77.70;;;;;;5036593;28;20089;-72
2021/01/07 09:46:33;;;;;;;5.97;4.82;;;4.60;76.20;;;;;;5037691;28;20096;-72
2021/01/07 09:48:58;;;;;;;5.90;4.80;;;5.70;77.20;;;;;;5037524;28;20118;-72
2021/01/07 09:51:24;;;;;;;5.90;3.83;;;6.70;70.90;;;;;;5037546;28;20025;-72
2021/01/07 09:53:50;;;;;;;5.55;4.47;;;7.40;68.40;;;;;;5037504;28;20029;-72
2021/01/07 09:56:18;;;;;;;6.35;4.82;;;8.50;68.10;;;;;;5036604;28;20056;-72
2021/01/07 09:58:44;;;;;;;6.07;5.30;;;9.40;63.20;;;;;;5037629;28;20063;-72
2021/01/07 10:01:10;;;;;;;7.72;5.30;;;9.80;62.90;;;;;;5037346;28;20032;-73
2021/01/07 10:03:35;;;;;;;6.00;5.05;;;10.30;62.30;;;;;;5037330;28;20076;-70
2021/01/07 10:06:01;;;;;;;6.20;5.05;;;10.50;61.20;;;;;;5037536;28;20060;-71
2021/01/07 10:08:26;;;;;;;5.68;4.97;;;10.80;58.60;;;;;;5036692;28;20034;-72
2021/01/07 10:10:52;;;;;;;5.60;4.72;;;10.70;58.50;;;;;;5046420;28;20163;-73
2021/01/07 10:13:18;;;;;;;5.25;4.32;;;10.80;57.30;;;;;;5057099;28;20032;-70
2021/01/07 10:15:43;;;;;;;4.97;3.85;;;10.80;57.60;;;;;;5057079;28;20059;-71
2021/01/07 10:18:09;;;;;;;6.68;5.43;;;10.90;57.80;;;;;;5057314;28;20048;-71
2021/01/07 10:20:35;;;;;;;5.57;4.53;;;11.10;58.00;;;;;;5057023;28;20313;-72
2021/01/07 10:23:05;;;;;;;5.93;5.32;;;10.80;56.70;;;;;;5056896;28;20040;-72
2021/01/07 10:25:32;;;;;;;6.05;5.20;;;9.70;58.40;;;;;;5056753;28;20035;-72
2021/01/07 10:27:59;;;;;;;6.15;5.32;;;9.20;62.60;;;;;;5056769;28;20055;-72
2021/01/07 10:30:25;;;;;;;5.53;4.88;;;9.40;60.70;;;;;;5056855;28;20031;-71
2021/01/07 10:32:53;;;;;;;5.72;5.07;;;9.80;59.20;;;;;;5057109;28;20354;-70
2021/01/07 10:35:21;;;;;;;5.22;4.47;;;10.30;58.30;;;;;;5056735;28;20029;-70
2021/01/07 10:37:54;;;;;;;5.25;4.40;;;10.70;56.30;;;;;;5056767;28;20032;-70
2021/01/07 10:40:21;;;;;;;5.13;4.63;;;10.70;56.20;;;;;;5056739;28;20029;-70
2021/01/07 10:42:49;;;;;;;6.75;5.25;;;10.80;57.00;;;;;;5056674;28;20411;-70
2021/01/07 10:45:15;;;;;;;5.65;5.07;;;10.90;56.40;;;;;;5056562;28;20079;-70
2021/01/07 10:47:44;;;;;;;4.80;4.20;;;11.00;54.10;;;;;;5056575;28;20029;-70
2021/01/07 10:50:12;;;;;;;4.35;3.50;;;10.90;54.00;;;;;;5056591;28;20425;-70
2021/01/07 10:53:03;;;;;;;5.60;4.18;;;10.90;54.20;;;;;;5056616;28;20025;-70
2021/01/07 10:55:30;;;;;;;4.82;4.05;;;11.00;55.00;;;;;;5056828;28;20059;-70
2021/01/07 10:58:15;;;;;;;5.57;4.30;;;11.10;54.70;;;;;;5056531;28;20033;-70
2021/01/07 11:00:46;;;;;;;4.53;3.92;;;11.10;54.90;;;;;;5056492;28;20025;-70
2021/01/07 11:03:29;;;;;;;5.68;4.82;;;11.30;56.10;;;;;;5056427;28;20064;-70
2021/01/07 11:06:01;;;;;;;5.88;4.90;;;11.20;58.10;;;;;;5056624;28;20104;-70
2021/01/07 11:08:38;;;;;;;6.40;4.60;;;11.30;57.40;;;;;;5056403;28;20052;-70
2021/01/07 11:11:23;;;;;;;6.05;5.07;;;11.50;56.20;;;;;;5056729;28;20025;-71
2021/01/07 11:14:05;;;;;;;4.68;3.97;;;11.70;55.10;;;;;;5060507;28;20056;-70
2021/01/07 11:16:40;;;;;;;5.10;4.10;;;11.90;54.10;;;;;;5060735;28;20041;-71
2021/01/07 11:19:09;;;;;;;3.92;3.38;;;12.10;53.50;;;;;;5060420;28;20075;-71
2021/01/07 11:21:45;;;;;;;4.75;4.20;;;12.30;53.00;;;;;;5060355;28;20374;-71
2021/01/07 11:24:11;;;;;;;;;;;12.50;53.30;;;;;;5060668;28;20423;-71
2021/01/07 11:26:39;;;;;;;4.00;3.35;;;12.50;53.30;;;;;;5060169;28;19913;-70
2021/01/07 11:29:07;;;;;;;4.00;3.60;;;12.60;52.30;;;;;;5060101;28;20041;-70
2021/01/07 11:31:36;;;;;;;5.95;3.42;;;12.60;52.90;;;;;;5059169;28;20329;-71
2021/01/07 11:34:02;;;;;;;2.97;2.67;;;12.30;51.50;;;;;;5060017;28;20409;-71
2021/01/07 11:36:38;;;;;;;4.05;3.00;;;12.20;52.10;;;;;;5060070;28;20029;-71
2021/01/07 11:39:04;;;;;;;4.00;2.97;;;12.20;51.20;;;;;;5058994;28;20032;-71
2021/01/07 11:41:58;;;;;;;2.30;1.98;;;11.80;52.10;;;;;;5059979;28;20020;-71
2021/01/07 11:44:37;;;;;;;3.45;2.70;;;11.40;53.80;;;;;;5059868;28;20023;-71
2021/01/07 11:47:08;;;;;;;2.67;2.33;;;11.40;55.40;;;;;;5060728;28;20413;-70
2021/01/07 11:49:40;;;;;;;3.38;2.67;;;11.60;54.30;;;;;;5059760;28;20417;-70
2021/01/07 11:52:07;;;;;;;3.40;2.75;;;11.50;55.20;;;;;;5059802;28;20360;-70
2021/01/07 11:54:38;;;;;;;2.83;2.53;;;11.50;54.60;;;;;;5058596;28;20025;-72
2021/01/07 11:57:06;;;;;;;3.40;2.75;;;11.50;55.30;;;;;;5059767;28;20025;-71
2021/01/07 11:59:38;;;;;;;4.72;3.60;;;11.50;53.70;;;;;;5059646;28;20025;-72
2021/01/07 12:02:11;;;;;;;3.67;3.03;;;11.50;54.40;;;;;;5059904;28;20025;-71
2021/01/07 12:04:38;;;;;;;3.22;2.92;;;11.50;53.10;;;;;;5059756;28;20025;-71
2021/01/07 12:07:24;;;;;;;3.40;2.80;;;11.40;52.10;;;;;;5058539;28;20106;-71
2021/01/07 12:09:49;;;;;;;3.97;2.70;;;11.70;54.20;;;;;;5059733;28;20033;-71
2021/01/07 12:12:16;;;;;;;2.60;2.10;;;11.80;53.90;;;;;;5059430;28;20021;-71
2021/01/07 12:14:50;;;;;;;1.98;1.45;;;11.70;50.30;;;;;;5059442;28;20017;-70
2021/01/07 12:17:16;;;;;;;2.65;1.85;;;11.10;55.30;;;;;;5059624;28;20132;-71
2021/01/07 12:19:43;;;;;;;2.55;2.10;;;10.50;56.30;;;;;;5058237;28;20029;-71
2021/01/07 12:22:11;;;;;;;2.53;1.90;;;10.30;55.70;;;;;;5059212;28;20413;-70
2021/01/07 12:24:37;;;;;;;2.58;2.08;;;10.30;57.00;;;;;;5058096;28;20028;-70
2021/01/07 12:27:06;;;;;;;2.78;2.28;;;10.50;57.00;;;;;;5059010;28;20044;-70
2021/01/07 12:29:37;;;;;;;2.55;2.03;;;10.60;55.50;;;;;;5058975;28;20051;-70
2021/01/07 12:32:20;;;;;;;2.30;2.00;;;10.70;52.80;;;;;;5059080;28;20096;-70
2021/01/07 12:34:54;;;;;;;3.60;2.17;;;10.70;54.20;;;;;;5057939;28;20060;-70
2021/01/07 12:37:20;;;;;;;2.25;1.95;;;10.70;53.90;;;;;;5058977;28;20032;-72
2021/01/07 12:40:02;;;;;;;4.03;2.13;;;10.70;56.30;;;;;;5058904;28;20053;-72
2021/01/07 12:42:41;;;;;;;2.33;1.70;;;10.60;54.90;;;;;;5058824;28;20025;-73
2021/01/07 12:45:11;;;;;;;2.58;2.30;;;10.30;54.50;;;;;;5058831;28;20039;-72
2021/01/07 12:47:36;;;;;;;3.33;2.40;;;10.20;56.20;;;;;;5058900;28;20028;-72
2021/01/07 12:50:04;;;;;;;3.25;2.50;;;10.10;53.40;;;;;;5058667;28;20020;-72
2021/01/07 12:52:30;;;;;;;3.65;2.33;;;10.00;55.80;;;;;;5058959;28;20364;-72
2021/01/07 12:54:59;;;;;;;3.90;2.72;;;9.80;56.40;;;;;;5058803;28;20028;-72
2021/01/07 12:57:34;;;;;;;3.15;2.65;;;9.60;57.70;;;;;;5058595;28;20086;-72